sensor_id;sensor_type;location;lat;lon;timestamp;P1;durP1;ratioP1;P2;durP2;ratioP2
15996;SDS011;8103;51.340;12.326;2022-12-18T00:01:27;35.93;;;21.23;;
15996;SDS011;8103;51.340;12.326;2022-12-18T00:03:59;32.40;;;20.50;;
15996;SDS011;8103;51.340;12.326;2022-12-18T00:06:29;42.07;;;19.97;;
15996;SDS011;8103;51.340;12.326;2022-12-18T00:08:59;33.60;;;21.07;;
15996;SDS011;8103;51.340;12.326;2022-12-18T00:11:28;38.37;;;20.93;;
15996;SDS011;8103;51.340;12.326;2022-12-18T00:13:57;36.30;;;21.40;;
15996;SDS011;8103;51.340;12.326;2022-12-18T00:16:27;31.07;;;18.93;;
15996;SDS011;8103;51.340;12.326;2022-12-18T00:18:56;43.10;;;21.37;;
15996;SDS011;8103;51.340;12.326;2022-12-18T00:21:25;40.80;;;22.90;;
15996;SDS011;8103;51.340;12.326;2022-12-18T00:23:56;41.73;;;21.43;;
15996;SDS011;8103;51.340;12.326;2022-12-18T00:26:25;36.43;;;19.77;;
15996;SDS011;8103;51.340;12.326;2022-12-18T00:28:59;34.53;;;22.00;;
15996;SDS011;8103;51.340;12.326;2022-12-18T00:31:30;37.07;;;21.47;;
15996;SDS011;8103;51.340;12.326;2022-12-18T00:33:58;39.80;;;20.93;;
15996;SDS011;8103;51.340;12.326;2022-12-18T00:36:26;41.23;;;20.53;;
15996;SDS011;8103;51.340;12.326;2022-12-18T00:38:58;40.23;;;22.30;;
15996;SDS011;8103;51.340;12.326;2022-12-18T00:41:27;42.70;;;22.23;;
15996;SDS011;8103;51.340;12.326;2022-12-18T00:44:14;37.60;;;21.43;;
15996;SDS011;8103;51.340;12.326;2022-12-18T00:46:43;38.43;;;19.97;;
15996;SDS011;8103;51.340;12.326;2022-12-18T00:49:12;35.80;;;20.97;;
15996;SDS011;8103;51.340;12.326;2022-12-18T00:51:39;38.70;;;21.10;;
15996;SDS011;8103;51.340;12.326;2022-12-18T00:54:07;35.57;;;20.50;;
15996;SDS011;8103;51.340;12.326;2022-12-18T00:56:35;41.27;;;21.97;;
15996;SDS011;8103;51.340;12.326;2022-12-18T00:59:13;41.03;;;21.60;;
15996;SDS011;8103;51.340;12.326;2022-12-18T01:01:39;32.37;;;19.40;;
15996;SDS011;8103;51.340;12.326;2022-12-18T01:04:07;34.77;;;19.17;;
15996;SDS011;8103;51.340;12.326;2022-12-18T01:06:34;38.63;;;20.77;;
15996;SDS011;8103;51.340;12.326;2022-12-18T01:09:01;43.23;;;22.03;;
15996;SDS011;8103;51.340;12.326;2022-12-18T01:11:29;38.97;;;19.90;;
15996;SDS011;8103;51.340;12.326;2022-12-18T01:13:56;34.87;;;20.60;;
15996;SDS011;8103;51.340;12.326;2022-12-18T01:16:23;34.80;;;20.23;;
15996;SDS011;8103;51.340;12.326;2022-12-18T01:18:53;41.07;;;20.77;;
15996;SDS011;8103;51.340;12.326;2022-12-18T01:21:21;35.70;;;20.03;;
15996;SDS011;8103;51.340;12.326;2022-12-18T01:23:56;42.10;;;21.40;;
15996;SDS011;8103;51.340;12.326;2022-12-18T01:26:24;35.53;;;19.57;;
15996;SDS011;8103;51.340;12.326;2022-12-18T01:28:53;36.53;;;20.10;;
15996;SDS011;8103;51.340;12.326;2022-12-18T01:31:31;38.23;;;19.93;;
15996;SDS011;8103;51.340;12.326;2022-12-18T01:34:03;33.73;;;20.23;;
15996;SDS011;8103;51.340;12.326;2022-12-18T01:36:33;36.13;;;19.50;;
15996;SDS011;8103;51.340;12.326;2022-12-18T01:39:04;34.70;;;19.97;;
15996;SDS011;8103;51.340;12.326;2022-12-18T01:41:38;40.93;;;21.37;;
15996;SDS011;8103;51.340;12.326;2022-12-18T01:47:31;39.27;;;19.67;;
15996;SDS011;8103;51.340;12.326;2022-12-18T01:50:10;32.30;;;18.83;;
15996;SDS011;8103;51.340;12.326;2022-12-18T01:53:00;36.17;;;20.67;;
15996;SDS011;8103;51.340;12.326;2022-12-18T01:55:36;31.73;;;19.37;;
15996;SDS011;8103;51.340;12.326;2022-12-18T01:58:19;37.47;;;20.73;;
15996;SDS011;8103;51.340;12.326;2022-12-18T02:01:08;39.37;;;19.77;;
15996;SDS011;8103;51.340;12.326;2022-12-18T02:03:35;38.73;;;19.13;;
15996;SDS011;8103;51.340;12.326;2022-12-18T02:06:06;35.53;;;20.87;;
15996;SDS011;8103;51.340;12.326;2022-12-18T02:11:53;35.50;;;18.80;;
15996;SDS011;8103;51.340;12.326;2022-12-18T02:17:39;33.03;;;18.57;;
15996;SDS011;8103;51.340;12.326;2022-12-18T02:20:18;31.80;;;17.83;;
15996;SDS011;8103;51.340;12.326;2022-12-18T02:28:42;37.93;;;20.40;;
15996;SDS011;8103;51.340;12.326;2022-12-18T02:31:28;38.03;;;19.97;;
15996;SDS011;8103;51.340;12.326;2022-12-18T02:34:05;32.43;;;18.97;;
15996;SDS011;8103;51.340;12.326;2022-12-18T02:36:35;31.23;;;16.40;;
15996;SDS011;8103;51.340;12.326;2022-12-18T02:39:07;35.83;;;19.37;;
15996;SDS011;8103;51.340;12.326;2022-12-18T02:41:38;27.10;;;17.53;;
15996;SDS011;8103;51.340;12.326;2022-12-18T02:44:07;35.50;;;19.70;;
15996;SDS011;8103;51.340;12.326;2022-12-18T02:49:26;35.30;;;17.53;;
15996;SDS011;8103;51.340;12.326;2022-12-18T02:55:21;32.73;;;17.97;;
15996;SDS011;8103;51.340;12.326;2022-12-18T02:58:08;30.77;;;18.53;;
15996;SDS011;8103;51.340;12.326;2022-12-18T03:03:51;31.27;;;17.60;;
15996;SDS011;8103;51.340;12.326;2022-12-18T03:06:27;27.60;;;17.23;;
15996;SDS011;8103;51.340;12.326;2022-12-18T03:09:09;31.33;;;16.70;;
15996;SDS011;8103;51.340;12.326;2022-12-18T03:11:44;30.97;;;16.43;;
15996;SDS011;8103;51.340;12.326;2022-12-18T03:14:43;33.23;;;17.33;;
15996;SDS011;8103;51.340;12.326;2022-12-18T03:17:23;30.17;;;16.67;;
15996;SDS011;8103;51.340;12.326;2022-12-18T03:19:56;32.47;;;16.77;;
15996;SDS011;8103;51.340;12.326;2022-12-18T03:22:32;31.70;;;16.63;;
15996;SDS011;8103;51.340;12.326;2022-12-18T03:25:04;35.33;;;16.70;;
15996;SDS011;8103;51.340;12.326;2022-12-18T03:27:37;32.07;;;17.57;;
15996;SDS011;8103;51.340;12.326;2022-12-18T03:30:11;30.00;;;16.97;;
15996;SDS011;8103;51.340;12.326;2022-12-18T03:32:42;32.47;;;16.03;;
15996;SDS011;8103;51.340;12.326;2022-12-18T03:35:23;25.47;;;15.40;;
15996;SDS011;8103;51.340;12.326;2022-12-18T03:38:01;26.37;;;15.07;;
15996;SDS011;8103;51.340;12.326;2022-12-18T03:40:34;26.33;;;16.27;;
15996;SDS011;8103;51.340;12.326;2022-12-18T03:43:46;26.93;;;16.10;;
15996;SDS011;8103;51.340;12.326;2022-12-18T03:46:29;27.03;;;15.40;;
15996;SDS011;8103;51.340;12.326;2022-12-18T03:49:12;25.13;;;14.50;;
15996;SDS011;8103;51.340;12.326;2022-12-18T03:52:05;26.90;;;15.30;;
15996;SDS011;8103;51.340;12.326;2022-12-18T03:54:44;26.67;;;15.87;;
15996;SDS011;8103;51.340;12.326;2022-12-18T03:57:15;24.33;;;15.27;;
15996;SDS011;8103;51.340;12.326;2022-12-18T03:59:48;26.23;;;14.93;;
15996;SDS011;8103;51.340;12.326;2022-12-18T04:02:21;25.70;;;13.80;;
15996;SDS011;8103;51.340;12.326;2022-12-18T04:04:55;21.80;;;13.17;;
15996;SDS011;8103;51.340;12.326;2022-12-18T04:07:29;23.63;;;13.20;;
15996;SDS011;8103;51.340;12.326;2022-12-18T04:09:56;26.47;;;14.90;;
15996;SDS011;8103;51.340;12.326;2022-12-18T04:12:28;25.33;;;14.80;;
15996;SDS011;8103;51.340;12.326;2022-12-18T04:14:56;16.20;;;11.13;;
15996;SDS011;8103;51.340;12.326;2022-12-18T04:17:23;24.10;;;15.00;;
15996;SDS011;8103;51.340;12.326;2022-12-18T04:19:53;22.20;;;13.73;;
15996;SDS011;8103;51.340;12.326;2022-12-18T04:22:20;26.30;;;15.00;;
15996;SDS011;8103;51.340;12.326;2022-12-18T04:24:47;23.27;;;12.27;;
15996;SDS011;8103;51.340;12.326;2022-12-18T04:27:13;21.73;;;12.67;;
15996;SDS011;8103;51.340;12.326;2022-12-18T04:29:40;20.47;;;12.57;;
15996;SDS011;8103;51.340;12.326;2022-12-18T04:32:07;20.83;;;12.93;;
15996;SDS011;8103;51.340;12.326;2022-12-18T04:34:35;20.77;;;12.97;;
15996;SDS011;8103;51.340;12.326;2022-12-18T04:37:01;19.47;;;12.13;;
15996;SDS011;8103;51.340;12.326;2022-12-18T04:39:28;21.70;;;13.30;;
15996;SDS011;8103;51.340;12.326;2022-12-18T04:41:55;24.00;;;14.00;;
15996;SDS011;8103;51.340;12.326;2022-12-18T04:44:22;21.00;;;11.20;;
15996;SDS011;8103;51.340;12.326;2022-12-18T04:46:49;21.57;;;12.33;;
15996;SDS011;8103;51.340;12.326;2022-12-18T04:49:16;19.03;;;11.67;;
15996;SDS011;8103;51.340;12.326;2022-12-18T04:51:42;19.47;;;11.70;;
15996;SDS011;8103;51.340;12.326;2022-12-18T04:54:09;24.03;;;12.30;;
15996;SDS011;8103;51.340;12.326;2022-12-18T04:56:36;19.30;;;10.90;;
15996;SDS011;8103;51.340;12.326;2022-12-18T04:59:03;17.50;;;10.53;;
15996;SDS011;8103;51.340;12.326;2022-12-18T05:01:31;15.27;;;10.70;;
15996;SDS011;8103;51.340;12.326;2022-12-18T05:04:01;21.80;;;11.13;;
15996;SDS011;8103;51.340;12.326;2022-12-18T05:06:28;16.30;;;11.80;;
15996;SDS011;8103;51.340;12.326;2022-12-18T05:08:55;18.67;;;12.00;;
15996;SDS011;8103;51.340;12.326;2022-12-18T05:11:22;28.73;;;12.13;;
15996;SDS011;8103;51.340;12.326;2022-12-18T05:13:49;21.17;;;11.63;;
15996;SDS011;8103;51.340;12.326;2022-12-18T05:16:16;15.23;;;9.20;;
15996;SDS011;8103;51.340;12.326;2022-12-18T05:18:43;19.10;;;11.70;;
15996;SDS011;8103;51.340;12.326;2022-12-18T05:21:09;17.27;;;11.20;;
15996;SDS011;8103;51.340;12.326;2022-12-18T05:23:36;22.80;;;11.77;;
15996;SDS011;8103;51.340;12.326;2022-12-18T05:26:04;16.67;;;10.77;;
15996;SDS011;8103;51.340;12.326;2022-12-18T05:28:34;21.27;;;11.83;;
15996;SDS011;8103;51.340;12.326;2022-12-18T05:31:03;19.70;;;11.63;;
15996;SDS011;8103;51.340;12.326;2022-12-18T05:33:32;18.97;;;12.03;;
15996;SDS011;8103;51.340;12.326;2022-12-18T05:36:03;15.90;;;10.47;;
15996;SDS011;8103;51.340;12.326;2022-12-18T05:38:34;17.20;;;9.77;;
15996;SDS011;8103;51.340;12.326;2022-12-18T05:41:03;16.30;;;11.17;;
15996;SDS011;8103;51.340;12.326;2022-12-18T05:43:31;17.97;;;10.83;;
15996;SDS011;8103;51.340;12.326;2022-12-18T05:46:10;18.10;;;11.53;;
15996;SDS011;8103;51.340;12.326;2022-12-18T05:48:42;16.30;;;10.30;;
15996;SDS011;8103;51.340;12.326;2022-12-18T05:51:11;17.43;;;10.20;;
15996;SDS011;8103;51.340;12.326;2022-12-18T05:53:41;21.30;;;9.53;;
15996;SDS011;8103;51.340;12.326;2022-12-18T05:56:10;14.37;;;8.87;;
15996;SDS011;8103;51.340;12.326;2022-12-18T05:58:41;17.40;;;9.63;;
15996;SDS011;8103;51.340;12.326;2022-12-18T06:01:12;18.67;;;9.60;;
15996;SDS011;8103;51.340;12.326;2022-12-18T06:03:43;20.10;;;9.43;;
15996;SDS011;8103;51.340;12.326;2022-12-18T06:06:21;12.97;;;8.30;;
15996;SDS011;8103;51.340;12.326;2022-12-18T06:08:51;22.60;;;11.60;;
15996;SDS011;8103;51.340;12.326;2022-12-18T06:11:21;21.00;;;11.37;;
15996;SDS011;8103;51.340;12.326;2022-12-18T06:13:51;16.03;;;8.87;;
15996;SDS011;8103;51.340;12.326;2022-12-18T06:16:24;18.50;;;10.10;;
15996;SDS011;8103;51.340;12.326;2022-12-18T06:18:52;16.07;;;9.90;;
15996;SDS011;8103;51.340;12.326;2022-12-18T06:21:22;20.37;;;10.23;;
15996;SDS011;8103;51.340;12.326;2022-12-18T06:23:49;14.37;;;8.87;;
15996;SDS011;8103;51.340;12.326;2022-12-18T06:26:16;18.00;;;10.50;;
15996;SDS011;8103;51.340;12.326;2022-12-18T06:28:46;16.47;;;8.80;;
15996;SDS011;8103;51.340;12.326;2022-12-18T06:35:12;16.00;;;8.73;;
15996;SDS011;8103;51.340;12.326;2022-12-18T06:37:39;18.77;;;9.80;;
15996;SDS011;8103;51.340;12.326;2022-12-18T06:40:06;16.40;;;9.47;;
15996;SDS011;8103;51.340;12.326;2022-12-18T06:42:34;17.27;;;9.83;;
15996;SDS011;8103;51.340;12.326;2022-12-18T06:45:01;15.50;;;10.00;;
15996;SDS011;8103;51.340;12.326;2022-12-18T06:47:27;14.03;;;8.83;;
15996;SDS011;8103;51.340;12.326;2022-12-18T06:49:54;17.37;;;10.47;;
15996;SDS011;8103;51.340;12.326;2022-12-18T06:52:21;12.37;;;8.80;;
15996;SDS011;8103;51.340;12.326;2022-12-18T06:54:48;13.47;;;9.30;;
15996;SDS011;8103;51.340;12.326;2022-12-18T06:57:15;14.17;;;8.80;;
15996;SDS011;8103;51.340;12.326;2022-12-18T06:59:42;14.17;;;9.53;;
15996;SDS011;8103;51.340;12.326;2022-12-18T07:02:10;17.27;;;9.97;;
15996;SDS011;8103;51.340;12.326;2022-12-18T07:04:39;15.07;;;10.57;;
15996;SDS011;8103;51.340;12.326;2022-12-18T07:11:06;16.13;;;9.60;;
15996;SDS011;8103;51.340;12.326;2022-12-18T07:13:32;18.20;;;8.50;;
15996;SDS011;8103;51.340;12.326;2022-12-18T07:16:03;11.13;;;8.17;;
15996;SDS011;8103;51.340;12.326;2022-12-18T07:18:46;11.40;;;7.83;;
15996;SDS011;8103;51.340;12.326;2022-12-18T07:21:15;14.97;;;8.70;;
15996;SDS011;8103;51.340;12.326;2022-12-18T07:23:45;12.30;;;7.73;;
15996;SDS011;8103;51.340;12.326;2022-12-18T07:26:14;12.00;;;8.20;;
15996;SDS011;8103;51.340;12.326;2022-12-18T07:28:44;11.27;;;9.00;;
15996;SDS011;8103;51.340;12.326;2022-12-18T07:31:21;13.40;;;7.60;;
15996;SDS011;8103;51.340;12.326;2022-12-18T07:33:48;12.63;;;7.03;;
15996;SDS011;8103;51.340;12.326;2022-12-18T07:36:16;12.43;;;7.53;;
15996;SDS011;8103;51.340;12.326;2022-12-18T07:38:47;13.57;;;8.27;;
15996;SDS011;8103;51.340;12.326;2022-12-18T07:41:15;12.83;;;7.70;;
15996;SDS011;8103;51.340;12.326;2022-12-18T07:43:43;12.90;;;7.90;;
15996;SDS011;8103;51.340;12.326;2022-12-18T07:46:11;10.90;;;7.07;;
15996;SDS011;8103;51.340;12.326;2022-12-18T07:48:40;10.07;;;7.07;;
15996;SDS011;8103;51.340;12.326;2022-12-18T07:51:10;11.43;;;7.40;;
15996;SDS011;8103;51.340;12.326;2022-12-18T07:53:39;14.43;;;7.63;;
15996;SDS011;8103;51.340;12.326;2022-12-18T07:56:09;10.23;;;7.50;;
15996;SDS011;8103;51.340;12.326;2022-12-18T07:58:55;12.20;;;8.47;;
15996;SDS011;8103;51.340;12.326;2022-12-18T08:01:23;15.80;;;8.53;;
15996;SDS011;8103;51.340;12.326;2022-12-18T08:03:50;9.70;;;8.30;;
15996;SDS011;8103;51.340;12.326;2022-12-18T08:06:18;13.43;;;8.07;;
15996;SDS011;8103;51.340;12.326;2022-12-18T08:08:47;11.03;;;7.53;;
15996;SDS011;8103;51.340;12.326;2022-12-18T08:11:14;12.23;;;7.77;;
15996;SDS011;8103;51.340;12.326;2022-12-18T08:13:41;10.50;;;7.17;;
15996;SDS011;8103;51.340;12.326;2022-12-18T08:16:08;11.10;;;7.53;;
15996;SDS011;8103;51.340;12.326;2022-12-18T08:18:36;11.30;;;7.87;;
15996;SDS011;8103;51.340;12.326;2022-12-18T08:21:07;13.33;;;7.50;;
15996;SDS011;8103;51.340;12.326;2022-12-18T08:23:44;11.00;;;7.97;;
15996;SDS011;8103;51.340;12.326;2022-12-18T08:26:11;13.60;;;8.27;;
15996;SDS011;8103;51.340;12.326;2022-12-18T08:28:40;12.77;;;7.80;;
15996;SDS011;8103;51.340;12.326;2022-12-18T08:31:07;11.23;;;6.83;;
15996;SDS011;8103;51.340;12.326;2022-12-18T08:33:35;14.17;;;8.03;;
15996;SDS011;8103;51.340;12.326;2022-12-18T08:36:05;12.10;;;7.50;;
15996;SDS011;8103;51.340;12.326;2022-12-18T08:38:34;10.40;;;6.73;;
15996;SDS011;8103;51.340;12.326;2022-12-18T08:41:05;10.80;;;6.90;;
15996;SDS011;8103;51.340;12.326;2022-12-18T08:43:36;9.00;;;6.53;;
15996;SDS011;8103;51.340;12.326;2022-12-18T08:46:22;10.73;;;6.85;;
15996;SDS011;8103;51.340;12.326;2022-12-18T08:48:52;8.35;;;6.30;;
15996;SDS011;8103;51.340;12.326;2022-12-18T08:51:22;13.30;;;6.47;;
15996;SDS011;8103;51.340;12.326;2022-12-18T08:53:49;8.15;;;5.93;;
15996;SDS011;8103;51.340;12.326;2022-12-18T08:56:17;9.38;;;5.25;;
15996;SDS011;8103;51.340;12.326;2022-12-18T08:58:44;9.25;;;5.28;;
15996;SDS011;8103;51.340;12.326;2022-12-18T09:01:12;7.88;;;5.35;;
15996;SDS011;8103;51.340;12.326;2022-12-18T09:03:40;7.22;;;4.93;;
15996;SDS011;8103;51.340;12.326;2022-12-18T09:06:07;9.20;;;5.82;;
15996;SDS011;8103;51.340;12.326;2022-12-18T09:08:39;6.72;;;5.20;;
15996;SDS011;8103;51.340;12.326;2022-12-18T09:11:11;7.88;;;5.88;;
15996;SDS011;8103;51.340;12.326;2022-12-18T09:17:55;9.57;;;7.15;;
15996;SDS011;8103;51.340;12.326;2022-12-18T09:20:21;7.38;;;6.38;;
15996;SDS011;8103;51.340;12.326;2022-12-18T09:22:48;9.48;;;5.97;;
15996;SDS011;8103;51.340;12.326;2022-12-18T09:25:15;6.03;;;4.60;;
15996;SDS011;8103;51.340;12.326;2022-12-18T09:27:42;8.18;;;5.28;;
15996;SDS011;8103;51.340;12.326;2022-12-18T09:30:09;8.32;;;5.22;;
15996;SDS011;8103;51.340;12.326;2022-12-18T09:32:36;6.43;;;5.28;;
15996;SDS011;8103;51.340;12.326;2022-12-18T09:35:03;6.90;;;5.13;;
15996;SDS011;8103;51.340;12.326;2022-12-18T09:37:30;7.18;;;5.45;;
15996;SDS011;8103;51.340;12.326;2022-12-18T09:39:57;5.90;;;4.78;;
15996;SDS011;8103;51.340;12.326;2022-12-18T09:42:24;5.38;;;4.85;;
15996;SDS011;8103;51.340;12.326;2022-12-18T09:44:52;6.70;;;5.15;;
15996;SDS011;8103;51.340;12.326;2022-12-18T09:47:22;7.32;;;5.38;;
15996;SDS011;8103;51.340;12.326;2022-12-18T09:54:24;5.13;;;4.38;;
15996;SDS011;8103;51.340;12.326;2022-12-18T09:56:58;8.27;;;5.13;;
15996;SDS011;8103;51.340;12.326;2022-12-18T09:59:26;9.85;;;5.43;;
15996;SDS011;8103;51.340;12.326;2022-12-18T10:02:15;8.90;;;6.22;;
15996;SDS011;8103;51.340;12.326;2022-12-18T10:05:28;8.68;;;6.18;;
15996;SDS011;8103;51.340;12.326;2022-12-18T10:07:50;9.32;;;6.43;;
15996;SDS011;8103;51.340;12.326;2022-12-18T10:10:35;7.78;;;6.22;;
15996;SDS011;8103;51.340;12.326;2022-12-18T10:16:25;7.68;;;6.18;;
15996;SDS011;8103;51.340;12.326;2022-12-18T10:22:19;9.07;;;6.33;;
15996;SDS011;8103;51.340;12.326;2022-12-18T10:25:15;9.17;;;6.53;;
15996;SDS011;8103;51.340;12.326;2022-12-18T10:28:15;10.87;;;6.93;;
15996;SDS011;8103;51.340;12.326;2022-12-18T10:30:45;10.20;;;6.37;;
15996;SDS011;8103;51.340;12.326;2022-12-18T10:33:20;8.33;;;5.90;;
15996;SDS011;8103;51.340;12.326;2022-12-18T10:35:50;10.27;;;6.50;;
15996;SDS011;8103;51.340;12.326;2022-12-18T10:46:11;9.13;;;5.90;;
15996;SDS011;8103;51.340;12.326;2022-12-18T10:53:55;9.30;;;5.67;;
15996;SDS011;8103;51.340;12.326;2022-12-18T10:56:27;7.07;;;5.20;;
15996;SDS011;8103;51.340;12.326;2022-12-18T10:58:58;6.57;;;4.37;;
15996;SDS011;8103;51.340;12.326;2022-12-18T11:05:37;7.93;;;5.73;;
15996;SDS011;8103;51.340;12.326;2022-12-18T11:08:04;9.43;;;5.17;;
15996;SDS011;8103;51.340;12.326;2022-12-18T11:10:32;8.30;;;5.70;;
15996;SDS011;8103;51.340;12.326;2022-12-18T11:13:10;7.23;;;5.83;;
15996;SDS011;8103;51.340;12.326;2022-12-18T11:15:43;7.83;;;4.90;;
15996;SDS011;8103;51.340;12.326;2022-12-18T11:18:30;7.23;;;5.03;;
15996;SDS011;8103;51.340;12.326;2022-12-18T11:21:08;7.83;;;4.83;;
15996;SDS011;8103;51.340;12.326;2022-12-18T11:23:46;10.30;;;5.80;;
15996;SDS011;8103;51.340;12.326;2022-12-18T11:26:17;9.13;;;6.57;;
15996;SDS011;8103;51.340;12.326;2022-12-18T11:34:01;6.90;;;5.07;;
15996;SDS011;8103;51.340;12.326;2022-12-18T11:36:54;8.47;;;5.30;;
15996;SDS011;8103;51.340;12.326;2022-12-18T11:39:28;9.70;;;6.00;;
15996;SDS011;8103;51.340;12.326;2022-12-18T11:42:14;11.13;;;6.17;;
15996;SDS011;8103;51.340;12.326;2022-12-18T11:44:51;9.03;;;6.63;;
15996;SDS011;8103;51.340;12.326;2022-12-18T11:47:37;8.03;;;5.77;;
15996;SDS011;8103;51.340;12.326;2022-12-18T11:50:21;11.03;;;6.17;;
15996;SDS011;8103;51.340;12.326;2022-12-18T11:53:10;11.63;;;5.97;;
15996;SDS011;8103;51.340;12.326;2022-12-18T11:58:32;9.70;;;6.17;;
15996;SDS011;8103;51.340;12.326;2022-12-18T12:11:15;8.63;;;5.83;;
15996;SDS011;8103;51.340;12.326;2022-12-18T12:20:11;11.37;;;6.40;;
15996;SDS011;8103;51.340;12.326;2022-12-18T12:39:21;9.17;;;6.27;;
15996;SDS011;8103;51.340;12.326;2022-12-18T12:41:56;8.97;;;6.27;;
15996;SDS011;8103;51.340;12.326;2022-12-18T12:44:45;7.00;;;5.57;;
15996;SDS011;8103;51.340;12.326;2022-12-18T12:47:23;11.10;;;6.93;;
15996;SDS011;8103;51.340;12.326;2022-12-18T12:49:58;8.52;;;6.22;;
15996;SDS011;8103;51.340;12.326;2022-12-18T12:52:33;9.37;;;6.07;;
15996;SDS011;8103;51.340;12.326;2022-12-18T12:55:16;11.33;;;6.50;;
15996;SDS011;8103;51.340;12.326;2022-12-18T12:57:56;10.10;;;6.40;;
15996;SDS011;8103;51.340;12.326;2022-12-18T13:00:43;9.23;;;5.90;;
15996;SDS011;8103;51.340;12.326;2022-12-18T13:06:33;9.23;;;6.13;;
15996;SDS011;8103;51.340;12.326;2022-12-18T13:09:12;10.38;;;7.70;;
15996;SDS011;8103;51.340;12.326;2022-12-18T13:11:42;12.50;;;8.23;;
15996;SDS011;8103;51.340;12.326;2022-12-18T13:14:31;8.40;;;6.83;;
15996;SDS011;8103;51.340;12.326;2022-12-18T13:22:42;14.55;;;9.15;;
15996;SDS011;8103;51.340;12.326;2022-12-18T13:25:35;10.20;;;7.50;;
15996;SDS011;8103;51.340;12.326;2022-12-18T13:30:41;12.13;;;7.53;;
15996;SDS011;8103;51.340;12.326;2022-12-18T13:35:53;13.25;;;8.43;;
15996;SDS011;8103;51.340;12.326;2022-12-18T13:39:11;10.27;;;7.68;;
15996;SDS011;8103;51.340;12.326;2022-12-18T13:44:32;11.18;;;7.35;;
15996;SDS011;8103;51.340;12.326;2022-12-18T13:47:26;15.33;;;8.37;;
15996;SDS011;8103;51.340;12.326;2022-12-18T13:50:11;11.60;;;7.60;;
15996;SDS011;8103;51.340;12.326;2022-12-18T13:52:53;11.65;;;7.57;;
15996;SDS011;8103;51.340;12.326;2022-12-18T13:55:20;11.00;;;8.03;;
15996;SDS011;8103;51.340;12.326;2022-12-18T13:57:49;10.23;;;7.00;;
15996;SDS011;8103;51.340;12.326;2022-12-18T14:00:30;10.80;;;7.90;;
15996;SDS011;8103;51.340;12.326;2022-12-18T14:02:58;12.60;;;7.77;;
15996;SDS011;8103;51.340;12.326;2022-12-18T14:05:30;11.90;;;8.13;;
15996;SDS011;8103;51.340;12.326;2022-12-18T14:08:06;11.97;;;8.30;;
15996;SDS011;8103;51.340;12.326;2022-12-18T14:10:42;11.90;;;7.90;;
15996;SDS011;8103;51.340;12.326;2022-12-18T14:13:17;15.47;;;7.20;;
15996;SDS011;8103;51.340;12.326;2022-12-18T14:15:58;14.87;;;8.70;;
15996;SDS011;8103;51.340;12.326;2022-12-18T14:21:17;13.80;;;8.60;;
15996;SDS011;8103;51.340;12.326;2022-12-18T14:24:02;14.20;;;9.70;;
15996;SDS011;8103;51.340;12.326;2022-12-18T14:26:40;14.07;;;9.30;;
15996;SDS011;8103;51.340;12.326;2022-12-18T14:29:22;16.53;;;10.60;;
15996;SDS011;8103;51.340;12.326;2022-12-18T14:32:04;13.30;;;9.63;;
15996;SDS011;8103;51.340;12.326;2022-12-18T14:34:44;16.13;;;9.77;;
15996;SDS011;8103;51.340;12.326;2022-12-18T14:37:20;16.07;;;9.47;;
15996;SDS011;8103;51.340;12.326;2022-12-18T14:39:55;16.60;;;9.07;;
15996;SDS011;8103;51.340;12.326;2022-12-18T14:42:32;14.97;;;10.40;;
15996;SDS011;8103;51.340;12.326;2022-12-18T14:48:15;17.83;;;11.43;;
15996;SDS011;8103;51.340;12.326;2022-12-18T14:53:37;24.20;;;12.97;;
15996;SDS011;8103;51.340;12.326;2022-12-18T14:58:52;25.07;;;12.93;;
15996;SDS011;8103;51.340;12.326;2022-12-18T15:01:31;21.33;;;13.20;;
15996;SDS011;8103;51.340;12.326;2022-12-18T15:04:24;20.47;;;13.20;;
15996;SDS011;8103;51.340;12.326;2022-12-18T15:18:23;21.80;;;13.27;;
15996;SDS011;8103;51.340;12.326;2022-12-18T15:21:00;21.40;;;12.67;;
15996;SDS011;8103;51.340;12.326;2022-12-18T15:26:15;21.83;;;13.07;;
15996;SDS011;8103;51.340;12.326;2022-12-18T15:28:50;24.87;;;14.17;;
15996;SDS011;8103;51.340;12.326;2022-12-18T15:31:28;20.47;;;12.60;;
15996;SDS011;8103;51.340;12.326;2022-12-18T15:36:34;20.57;;;12.57;;
15996;SDS011;8103;51.340;12.326;2022-12-18T15:39:02;26.97;;;14.23;;
15996;SDS011;8103;51.340;12.326;2022-12-18T15:41:32;20.13;;;14.13;;
15996;SDS011;8103;51.340;12.326;2022-12-18T15:51:23;27.17;;;14.80;;
15996;SDS011;8103;51.340;12.326;2022-12-18T15:53:58;27.20;;;16.00;;
15996;SDS011;8103;51.340;12.326;2022-12-18T15:56:30;28.67;;;16.07;;
15996;SDS011;8103;51.340;12.326;2022-12-18T15:59:19;21.73;;;15.07;;
15996;SDS011;8103;51.340;12.326;2022-12-18T16:01:48;25.13;;;16.10;;
15996;SDS011;8103;51.340;12.326;2022-12-18T16:04:18;27.20;;;16.23;;
15996;SDS011;8103;51.340;12.326;2022-12-18T16:06:51;23.70;;;15.13;;
15996;SDS011;8103;51.340;12.326;2022-12-18T16:09:38;27.90;;;15.80;;
15996;SDS011;8103;51.340;12.326;2022-12-18T16:12:06;28.87;;;16.13;;
15996;SDS011;8103;51.340;12.326;2022-12-18T16:14:41;30.57;;;15.83;;
15996;SDS011;8103;51.340;12.326;2022-12-18T16:21:39;29.43;;;17.57;;
15996;SDS011;8103;51.340;12.326;2022-12-18T16:24:09;29.30;;;18.63;;
15996;SDS011;8103;51.340;12.326;2022-12-18T16:26:43;36.03;;;20.33;;
15996;SDS011;8103;51.340;12.326;2022-12-18T16:29:10;36.00;;;19.97;;
15996;SDS011;8103;51.340;12.326;2022-12-18T16:31:37;33.10;;;20.00;;
15996;SDS011;8103;51.340;12.326;2022-12-18T16:34:20;36.60;;;21.47;;
15996;SDS011;8103;51.340;12.326;2022-12-18T16:37:03;36.47;;;21.50;;
15996;SDS011;8103;51.340;12.326;2022-12-18T16:39:35;31.13;;;19.60;;
15996;SDS011;8103;51.340;12.326;2022-12-18T16:42:06;33.20;;;20.80;;
15996;SDS011;8103;51.340;12.326;2022-12-18T16:44:46;37.00;;;19.67;;
15996;SDS011;8103;51.340;12.326;2022-12-18T16:47:15;31.07;;;18.50;;
15996;SDS011;8103;51.340;12.326;2022-12-18T16:49:43;30.00;;;17.87;;
15996;SDS011;8103;51.340;12.326;2022-12-18T16:52:12;26.23;;;15.80;;
15996;SDS011;8103;51.340;12.326;2022-12-18T16:54:44;28.87;;;18.07;;
15996;SDS011;8103;51.340;12.326;2022-12-18T16:57:15;30.73;;;20.27;;
15996;SDS011;8103;51.340;12.326;2022-12-18T16:59:45;31.13;;;17.80;;
15996;SDS011;8103;51.340;12.326;2022-12-18T17:02:14;30.00;;;16.67;;
15996;SDS011;8103;51.340;12.326;2022-12-18T17:04:49;31.07;;;17.47;;
15996;SDS011;8103;51.340;12.326;2022-12-18T17:07:19;32.90;;;17.60;;
15996;SDS011;8103;51.340;12.326;2022-12-18T17:09:46;30.93;;;16.87;;
15996;SDS011;8103;51.340;12.326;2022-12-18T17:12:16;26.97;;;16.33;;
15996;SDS011;8103;51.340;12.326;2022-12-18T17:14:46;28.77;;;16.00;;
15996;SDS011;8103;51.340;12.326;2022-12-18T17:17:14;28.33;;;16.83;;
15996;SDS011;8103;51.340;12.326;2022-12-18T17:19:48;26.00;;;15.40;;
15996;SDS011;8103;51.340;12.326;2022-12-18T17:22:17;28.70;;;14.90;;
15996;SDS011;8103;51.340;12.326;2022-12-18T17:24:46;26.33;;;15.17;;
15996;SDS011;8103;51.340;12.326;2022-12-18T17:27:13;25.13;;;15.13;;
15996;SDS011;8103;51.340;12.326;2022-12-18T17:29:40;29.47;;;15.70;;
15996;SDS011;8103;51.340;12.326;2022-12-18T17:32:12;31.57;;;16.10;;
15996;SDS011;8103;51.340;12.326;2022-12-18T17:34:42;27.93;;;16.87;;
15996;SDS011;8103;51.340;12.326;2022-12-18T17:37:09;26.90;;;16.10;;
15996;SDS011;8103;51.340;12.326;2022-12-18T17:39:35;30.90;;;16.53;;
15996;SDS011;8103;51.340;12.326;2022-12-18T17:42:03;27.57;;;15.87;;
15996;SDS011;8103;51.340;12.326;2022-12-18T17:44:30;26.00;;;15.70;;